Meteo Giornale » Osservazioni meteo Italia » S Maria Di Leuca

ore: 16:55 - Osservazioni Meteo S Maria Di Leuca
Lat. 39° 49' N Lon. 18° 21' E Alt. 104 metri s.l.m.

sereno Europe/Rome

11 °C

Sereno

Temp. 24 Ore

7 °C

11 °C

Nord

0 Km/h

Dew point 6 °C

Umidità 71 %

Visibilità  10 Km

Il sole sorge alle ore 06:57

Il sole tramonta alle ore 16:23

Data e Ora Cielo e Fenomeni T °C DP °C Um. % Pres. hPa Vis. km Vento km/h
Oggi h: 16:55 sereno Sereno 11 6 71 1019 10 N 0
Oggi h: 15:55 sereno Sereno 11 6 71 1019 10 N 3.7
Oggi h: 14:55 sereno Sereno 11 5 66 1019 10 O 9.3
Oggi h: 13:55 sereno Sereno 11 5 66 1019 10 O 7.4
Oggi h: 12:55 sereno Sereno 11 5 66 1019 10 O/SO 13
Oggi h: 11:55 sereno Sereno 10 3 61 1020 10 O 9.3
Oggi h: 10:55 sereno Sereno 10 3 61 1020 10 N 3.7
Oggi h: 09:55 sereno Sereno 8 5 81 1019 10 N 16.7
Oggi h: 08:55 sereno Sereno 8 6 87 1019 10 N/NE 9.3
Oggi h: 06:55 sereno Sereno 7 6 93 1019 10 N 13
Oggi h: 05:55 sereno Sereno 7 6 93 1018 10 N 14.8
Oggi h: 04:55 sereno Sereno 7 6 93 1018 10 N/NO 14.8
Oggi h: 03:55 sereno Sereno 7 5 87 1017 10 N/NO 14.8
Oggi h: 02:55 sereno Sereno 8 6 87 1017 10 N/NE 14.8
Oggi h: 01:55 sereno Sereno 8 7 93 1017 10 N/NE 14.8
Oggi h: 00:55 sereno Sereno 8 6 87 1017 10 N 14.8
Ieri h: 23:55 sereno Sereno 8 2 65 1017 10 N 9.3
Ieri h: 22:55 sereno Sereno 8 2 65 1017 10 N/NO 16.7
Ieri h: 21:55 sereno Sereno 8 3 70 1016 10 N 16.7
Ieri h: 20:55 sereno Sereno 8 3 70 1016 10 N/NO 14.8
Ieri h: 19:55 sereno Sereno 9 2 61 1016 10 N 14.8
Ieri h: 18:55 poco_nuvoloso Poco Nuvoloso 9 2 61 1016 10 N/NO 22.2
Ieri h: 17:55 poco_nuvoloso Poco Nuvoloso 10 4 66 1016 10 N/NO 16.7